sensor_id;sensor_type;location;lat;lon;timestamp;temperature;humidity
65460;DHT22;52058;49.822;6.754;2023-12-07T00:01:16;2.42;99.13
65460;DHT22;52058;49.822;6.754;2023-12-07T00:03:43;2.51;99.44
65460;DHT22;52058;49.822;6.754;2023-12-07T00:06:09;2.65;99.02
65460;DHT22;52058;49.822;6.754;2023-12-07T00:08:37;2.68;98.71
65460;DHT22;52058;49.822;6.754;2023-12-07T00:11:04;2.71;98.80
65460;DHT22;52058;49.822;6.754;2023-12-07T00:13:31;2.71;98.50
65460;DHT22;52058;49.822;6.754;2023-12-07T00:15:57;2.76;98.51
65460;DHT22;52058;49.822;6.754;2023-12-07T00:18:24;2.73;98.29
65460;DHT22;52058;49.822;6.754;2023-12-07T00:20:50;2.78;98.06
65460;DHT22;52058;49.822;6.754;2023-12-07T00:23:16;2.90;97.96
65460;DHT22;52058;49.822;6.754;2023-12-07T00:25:44;2.93;98.46
65460;DHT22;52058;49.822;6.754;2023-12-07T00:28:11;2.93;98.45
65460;DHT22;52058;49.822;6.754;2023-12-07T00:30:38;3.06;98.30
65460;DHT22;52058;49.822;6.754;2023-12-07T00:33:04;3.07;97.73
65460;DHT22;52058;49.822;6.754;2023-12-07T00:35:31;3.11;97.67
65460;DHT22;52058;49.822;6.754;2023-12-07T00:37:57;3.14;98.08
65460;DHT22;52058;49.822;6.754;2023-12-07T00:40:24;3.20;98.02
65460;DHT22;52058;49.822;6.754;2023-12-07T00:42:52;3.21;97.81
65460;DHT22;52058;49.822;6.754;2023-12-07T00:45:18;3.31;98.00
65460;DHT22;52058;49.822;6.754;2023-12-07T00:47:45;3.35;97.82
65460;DHT22;52058;49.822;6.754;2023-12-07T00:50:12;3.38;97.60
65460;DHT22;52058;49.822;6.754;2023-12-07T00:52:40;3.42;97.54
65460;DHT22;52058;49.822;6.754;2023-12-07T00:55:07;3.44;97.22
65460;DHT22;52058;49.822;6.754;2023-12-07T00:57:34;3.45;96.56
65460;DHT22;52058;49.822;6.754;2023-12-07T01:00:02;3.48;96.49
65460;DHT22;52058;49.822;6.754;2023-12-07T01:02:29;3.48;97.00
65460;DHT22;52058;49.822;6.754;2023-12-07T01:04:56;3.50;97.03
65460;DHT22;52058;49.822;6.754;2023-12-07T01:07:22;3.52;96.98
65460;DHT22;52058;49.822;6.754;2023-12-07T01:09:49;3.54;96.73
65460;DHT22;52058;49.822;6.754;2023-12-07T01:12:15;3.64;96.44
65460;DHT22;52058;49.822;6.754;2023-12-07T01:14:42;3.61;96.35
65460;DHT22;52058;49.822;6.754;2023-12-07T01:17:10;3.61;97.02
65460;DHT22;52058;49.822;6.754;2023-12-07T01:19:36;3.58;97.05
65460;DHT22;52058;49.822;6.754;2023-12-07T01:22:03;3.62;96.64
65460;DHT22;52058;49.822;6.754;2023-12-07T01:24:30;3.65;96.28
65460;DHT22;52058;49.822;6.754;2023-12-07T01:26:56;3.65;96.17
65460;DHT22;52058;49.822;6.754;2023-12-07T01:29:23;3.61;97.05
65460;DHT22;52058;49.822;6.754;2023-12-07T01:31:50;3.69;96.89
65460;DHT22;52058;49.822;6.754;2023-12-07T01:34:18;3.62;96.47
65460;DHT22;52058;49.822;6.754;2023-12-07T01:36:44;3.72;96.26
65460;DHT22;52058;49.822;6.754;2023-12-07T01:39:11;3.71;96.12
65460;DHT22;52058;49.822;6.754;2023-12-07T01:41:38;3.71;96.23
65460;DHT22;52058;49.822;6.754;2023-12-07T01:44:05;3.72;95.44
65460;DHT22;52058;49.822;6.754;2023-12-07T01:46:32;3.78;95.69
65460;DHT22;52058;49.822;6.754;2023-12-07T01:48:59;3.79;95.62
65460;DHT22;52058;49.822;6.754;2023-12-07T01:51:27;3.79;95.53
65460;DHT22;52058;49.822;6.754;2023-12-07T01:53:54;3.81;95.31
65460;DHT22;52058;49.822;6.754;2023-12-07T01:56:23;3.79;95.10
65460;DHT22;52058;49.822;6.754;2023-12-07T01:58:50;3.79;95.07
65460;DHT22;52058;49.822;6.754;2023-12-07T02:01:17;3.83;95.26
65460;DHT22;52058;49.822;6.754;2023-12-07T02:03:44;3.86;94.66
65460;DHT22;52058;49.822;6.754;2023-12-07T02:06:10;3.79;93.90
65460;DHT22;52058;49.822;6.754;2023-12-07T02:08:40;3.72;94.24
65460;DHT22;52058;49.822;6.754;2023-12-07T02:11:07;3.82;93.95
65460;DHT22;52058;49.822;6.754;2023-12-07T02:13:35;3.81;93.50
65460;DHT22;52058;49.822;6.754;2023-12-07T02:16:05;3.81;93.83
65460;DHT22;52058;49.822;6.754;2023-12-07T02:18:38;3.85;93.11
65460;DHT22;52058;49.822;6.754;2023-12-07T02:21:08;3.83;93.44
65460;DHT22;52058;49.822;6.754;2023-12-07T02:23:41;3.81;92.89
65460;DHT22;52058;49.822;6.754;2023-12-07T02:26:10;3.75;92.05
65460;DHT22;52058;49.822;6.754;2023-12-07T02:28:39;3.74;92.12
65460;DHT22;52058;49.822;6.754;2023-12-07T02:31:05;3.77;92.70
65460;DHT22;52058;49.822;6.754;2023-12-07T02:33:32;3.79;91.92
65460;DHT22;52058;49.822;6.754;2023-12-07T02:35:59;3.85;91.69
65460;DHT22;52058;49.822;6.754;2023-12-07T02:38:26;3.85;91.26
65460;DHT22;52058;49.822;6.754;2023-12-07T02:40:55;3.83;90.23
65460;DHT22;52058;49.822;6.754;2023-12-07T02:43:22;3.83;91.70
65460;DHT22;52058;49.822;6.754;2023-12-07T02:45:50;3.89;91.43
65460;DHT22;52058;49.822;6.754;2023-12-07T02:48:16;3.92;91.99
65460;DHT22;52058;49.822;6.754;2023-12-07T02:50:43;3.93;92.39
65460;DHT22;52058;49.822;6.754;2023-12-07T02:53:10;3.86;92.10
65460;DHT22;52058;49.822;6.754;2023-12-07T02:55:36;3.88;92.51
65460;DHT22;52058;49.822;6.754;2023-12-07T02:58:03;3.90;91.55
65460;DHT22;52058;49.822;6.754;2023-12-07T03:00:31;3.92;92.17
65460;DHT22;52058;49.822;6.754;2023-12-07T03:02:59;3.92;92.63
65460;DHT22;52058;49.822;6.754;2023-12-07T03:05:26;3.93;91.90
65460;DHT22;52058;49.822;6.754;2023-12-07T03:07:52;3.83;91.86
65460;DHT22;52058;49.822;6.754;2023-12-07T03:10:19;3.88;92.35
65460;DHT22;52058;49.822;6.754;2023-12-07T03:12:45;3.93;92.65
65460;DHT22;52058;49.822;6.754;2023-12-07T03:15:12;3.92;91.69
65460;DHT22;52058;49.822;6.754;2023-12-07T03:17:39;3.96;92.48
65460;DHT22;52058;49.822;6.754;2023-12-07T03:20:07;3.95;92.28
65460;DHT22;52058;49.822;6.754;2023-12-07T03:22:35;3.89;92.86
65460;DHT22;52058;49.822;6.754;2023-12-07T03:25:02;3.89;92.00
65460;DHT22;52058;49.822;6.754;2023-12-07T03:27:28;3.88;91.97
65460;DHT22;52058;49.822;6.754;2023-12-07T03:29:54;3.90;92.70
65460;DHT22;52058;49.822;6.754;2023-12-07T03:32:20;3.90;92.95
65460;DHT22;52058;49.822;6.754;2023-12-07T03:34:47;3.90;92.36
65460;DHT22;52058;49.822;6.754;2023-12-07T03:37:15;3.90;91.55
65460;DHT22;52058;49.822;6.754;2023-12-07T03:39:42;3.90;91.60
65460;DHT22;52058;49.822;6.754;2023-12-07T03:42:08;3.85;91.81
65460;DHT22;52058;49.822;6.754;2023-12-07T03:44:35;3.89;92.30
65460;DHT22;52058;49.822;6.754;2023-12-07T03:47:01;3.90;92.55
65460;DHT22;52058;49.822;6.754;2023-12-07T03:49:28;3.88;92.03
65460;DHT22;52058;49.822;6.754;2023-12-07T03:51:54;3.86;91.41
65460;DHT22;52058;49.822;6.754;2023-12-07T03:54:22;3.88;91.57
65460;DHT22;52058;49.822;6.754;2023-12-07T03:56:49;3.79;91.93
65460;DHT22;52058;49.822;6.754;2023-12-07T03:59:15;3.86;91.90
65460;DHT22;52058;49.822;6.754;2023-12-07T04:01:42;3.82;92.00
65460;DHT22;52058;49.822;6.754;2023-12-07T04:04:08;3.82;91.83
65460;DHT22;52058;49.822;6.754;2023-12-07T04:06:35;3.79;91.83
65460;DHT22;52058;49.822;6.754;2023-12-07T04:09:01;3.83;91.95
65460;DHT22;52058;49.822;6.754;2023-12-07T04:11:30;3.82;92.53
65460;DHT22;52058;49.822;6.754;2023-12-07T04:13:57;3.85;92.64
65460;DHT22;52058;49.822;6.754;2023-12-07T04:16:24;3.75;92.13
65460;DHT22;52058;49.822;6.754;2023-12-07T04:18:51;3.78;92.32
65460;DHT22;52058;49.822;6.754;2023-12-07T04:21:17;3.79;91.90
65460;DHT22;52058;49.822;6.754;2023-12-07T04:23:44;3.69;92.08
65460;DHT22;52058;49.822;6.754;2023-12-07T04:26:10;3.71;92.17
65460;DHT22;52058;49.822;6.754;2023-12-07T04:28:38;3.61;92.02
65460;DHT22;52058;49.822;6.754;2023-12-07T04:31:05;3.55;91.72
65460;DHT22;52058;49.822;6.754;2023-12-07T04:33:32;3.57;91.54
65460;DHT22;52058;49.822;6.754;2023-12-07T04:35:58;3.61;91.92
65460;DHT22;52058;49.822;6.754;2023-12-07T04:38:25;3.61;92.05
65460;DHT22;52058;49.822;6.754;2023-12-07T04:40:51;3.61;91.77
65460;DHT22;52058;49.822;6.754;2023-12-07T04:43:18;3.59;91.92
65460;DHT22;52058;49.822;6.754;2023-12-07T04:45:46;3.62;91.71
65460;DHT22;52058;49.822;6.754;2023-12-07T04:48:12;3.61;91.49
65460;DHT22;52058;49.822;6.754;2023-12-07T04:50:39;3.58;92.41
65460;DHT22;52058;49.822;6.754;2023-12-07T04:53:05;3.57;92.22
65460;DHT22;52058;49.822;6.754;2023-12-07T04:55:32;3.58;92.46
65460;DHT22;52058;49.822;6.754;2023-12-07T04:57:58;3.61;91.72
65460;DHT22;52058;49.822;6.754;2023-12-07T05:00:25;3.55;91.99
65460;DHT22;52058;49.822;6.754;2023-12-07T05:02:54;3.37;91.20
65460;DHT22;52058;49.822;6.754;2023-12-07T05:05:20;3.19;91.69
65460;DHT22;52058;49.822;6.754;2023-12-07T05:07:47;3.19;91.82
65460;DHT22;52058;49.822;6.754;2023-12-07T05:10:13;3.20;92.34
65460;DHT22;52058;49.822;6.754;2023-12-07T05:12:40;3.31;92.06
65460;DHT22;52058;49.822;6.754;2023-12-07T05:15:07;3.30;92.13
65460;DHT22;52058;49.822;6.754;2023-12-07T05:17:34;3.31;91.60
65460;DHT22;52058;49.822;6.754;2023-12-07T05:20:03;3.27;91.56
65460;DHT22;52058;49.822;6.754;2023-12-07T05:22:31;3.26;92.32
65460;DHT22;52058;49.822;6.754;2023-12-07T05:24:57;3.34;92.19
65460;DHT22;52058;49.822;6.754;2023-12-07T05:27:24;3.38;91.38
65460;DHT22;52058;49.822;6.754;2023-12-07T05:29:50;3.32;91.83
65460;DHT22;52058;49.822;6.754;2023-12-07T05:32:17;3.28;91.95
65460;DHT22;52058;49.822;6.754;2023-12-07T05:34:43;3.27;91.73
65460;DHT22;52058;49.822;6.754;2023-12-07T05:37:12;3.21;92.06
65460;DHT22;52058;49.822;6.754;2023-12-07T05:39:38;3.19;91.30
65460;DHT22;52058;49.822;6.754;2023-12-07T05:42:05;3.13;92.06
65460;DHT22;52058;49.822;6.754;2023-12-07T05:44:32;3.09;92.06
65460;DHT22;52058;49.822;6.754;2023-12-07T05:46:59;3.13;92.14
65460;DHT22;52058;49.822;6.754;2023-12-07T05:49:25;3.14;92.25
65460;DHT22;52058;49.822;6.754;2023-12-07T05:51:52;3.11;92.16
65460;DHT22;52058;49.822;6.754;2023-12-07T05:54:20;3.16;92.93
65460;DHT22;52058;49.822;6.754;2023-12-07T05:56:47;3.13;92.35
65460;DHT22;52058;49.822;6.754;2023-12-07T05:59:14;3.07;92.59
65460;DHT22;52058;49.822;6.754;2023-12-07T06:01:40;3.11;92.81
65460;DHT22;52058;49.822;6.754;2023-12-07T06:04:08;3.07;93.10
65460;DHT22;52058;49.822;6.754;2023-12-07T06:06:35;2.97;92.70
65460;DHT22;52058;49.822;6.754;2023-12-07T06:09:02;2.96;93.12
65460;DHT22;52058;49.822;6.754;2023-12-07T06:11:32;2.96;92.86
65460;DHT22;52058;49.822;6.754;2023-12-07T06:13:58;2.99;92.55
65460;DHT22;52058;49.822;6.754;2023-12-07T06:16:25;3.04;93.35
65460;DHT22;52058;49.822;6.754;2023-12-07T06:18:51;3.01;93.25
65460;DHT22;52058;49.822;6.754;2023-12-07T06:21:18;3.06;92.93
65460;DHT22;52058;49.822;6.754;2023-12-07T06:23:45;2.96;92.19
65460;DHT22;52058;49.822;6.754;2023-12-07T06:26:12;2.95;92.16
65460;DHT22;52058;49.822;6.754;2023-12-07T06:28:40;2.89;92.68
65460;DHT22;52058;49.822;6.754;2023-12-07T06:31:08;2.88;92.89
65460;DHT22;52058;49.822;6.754;2023-12-07T06:33:34;3.03;92.34
65460;DHT22;52058;49.822;6.754;2023-12-07T06:36:01;3.04;92.07
65460;DHT22;52058;49.822;6.754;2023-12-07T06:38:29;3.00;92.17
65460;DHT22;52058;49.822;6.754;2023-12-07T06:40:56;3.09;91.75
65460;DHT22;52058;49.822;6.754;2023-12-07T06:43:22;3.03;91.57
65460;DHT22;52058;49.822;6.754;2023-12-07T06:45:50;3.04;92.45
65460;DHT22;52058;49.822;6.754;2023-12-07T06:48:17;3.06;92.16
65460;DHT22;52058;49.822;6.754;2023-12-07T06:50:43;3.13;92.53
65460;DHT22;52058;49.822;6.754;2023-12-07T06:53:10;3.07;92.13
65460;DHT22;52058;49.822;6.754;2023-12-07T06:55:37;3.13;92.01
65460;DHT22;52058;49.822;6.754;2023-12-07T06:58:04;3.07;91.78
65460;DHT22;52058;49.822;6.754;2023-12-07T07:00:30;3.13;92.16
65460;DHT22;52058;49.822;6.754;2023-12-07T07:02:59;3.16;91.61
65460;DHT22;52058;49.822;6.754;2023-12-07T07:05:26;3.23;91.04
65460;DHT22;52058;49.822;6.754;2023-12-07T07:07:52;3.14;90.80
65460;DHT22;52058;49.822;6.754;2023-12-07T07:10:20;3.19;90.97
65460;DHT22;52058;49.822;6.754;2023-12-07T07:12:47;3.14;90.90
65460;DHT22;52058;49.822;6.754;2023-12-07T07:15:14;3.10;90.96
65460;DHT22;52058;49.822;6.754;2023-12-07T07:17:40;3.13;90.95
65460;DHT22;52058;49.822;6.754;2023-12-07T07:20:09;3.01;91.21
65460;DHT22;52058;49.822;6.754;2023-12-07T07:22:36;3.09;91.20
65460;DHT22;52058;49.822;6.754;2023-12-07T07:25:03;3.13;90.60
65460;DHT22;52058;49.822;6.754;2023-12-07T07:27:30;3.11;90.27
65460;DHT22;52058;49.822;6.754;2023-12-07T07:29:56;3.11;90.25
65460;DHT22;52058;49.822;6.754;2023-12-07T07:32:23;3.16;90.75
65460;DHT22;52058;49.822;6.754;2023-12-07T07:34:49;3.19;89.75
65460;DHT22;52058;49.822;6.754;2023-12-07T07:37:17;3.16;90.26
65460;DHT22;52058;49.822;6.754;2023-12-07T07:39:44;3.16;89.47
65460;DHT22;52058;49.822;6.754;2023-12-07T07:42:10;3.14;90.05
65460;DHT22;52058;49.822;6.754;2023-12-07T07:44:37;3.14;90.31
65460;DHT22;52058;49.822;6.754;2023-12-07T07:47:04;3.11;90.73
65460;DHT22;52058;49.822;6.754;2023-12-07T07:49:30;3.06;90.02
65460;DHT22;52058;49.822;6.754;2023-12-07T07:51:57;3.11;89.25
65460;DHT22;52058;49.822;6.754;2023-12-07T07:54:25;3.10;89.41
65460;DHT22;52058;49.822;6.754;2023-12-07T07:56:51;3.11;89.58
65460;DHT22;52058;49.822;6.754;2023-12-07T07:59:18;3.10;89.61
65460;DHT22;52058;49.822;6.754;2023-12-07T08:01:45;3.01;89.42
65460;DHT22;52058;49.822;6.754;2023-12-07T08:04:12;3.03;89.57
65460;DHT22;52058;49.822;6.754;2023-12-07T08:06:39;3.07;89.76
65460;DHT22;52058;49.822;6.754;2023-12-07T08:09:07;3.13;89.84
65460;DHT22;52058;49.822;6.754;2023-12-07T08:11:35;3.32;89.82
65460;DHT22;52058;49.822;6.754;2023-12-07T08:14:02;3.32;89.30
65460;DHT22;52058;49.822;6.754;2023-12-07T08:16:28;3.42;89.36
65460;DHT22;52058;49.822;6.754;2023-12-07T08:18:55;3.45;88.33
65460;DHT22;52058;49.822;6.754;2023-12-07T08:21:22;3.42;88.66
65460;DHT22;52058;49.822;6.754;2023-12-07T08:23:48;3.48;88.60
65460;DHT22;52058;49.822;6.754;2023-12-07T08:26:15;3.50;88.20
65460;DHT22;52058;49.822;6.754;2023-12-07T08:28:43;3.59;88.53
65460;DHT22;52058;49.822;6.754;2023-12-07T08:31:10;3.54;88.01
65460;DHT22;52058;49.822;6.754;2023-12-07T08:33:36;3.51;88.21
65460;DHT22;52058;49.822;6.754;2023-12-07T08:36:05;3.48;88.00
65460;DHT22;52058;49.822;6.754;2023-12-07T08:38:31;3.61;87.85
65460;DHT22;52058;49.822;6.754;2023-12-07T08:40:58;3.62;87.52
65460;DHT22;52058;49.822;6.754;2023-12-07T08:43:25;3.68;87.42
65460;DHT22;52058;49.822;6.754;2023-12-07T08:45:54;3.62;87.43
65460;DHT22;52058;49.822;6.754;2023-12-07T08:48:21;3.62;87.47
65460;DHT22;52058;49.822;6.754;2023-12-07T08:50:47;3.59;87.70
65460;DHT22;52058;49.822;6.754;2023-12-07T08:53:14;3.74;87.27
65460;DHT22;52058;49.822;6.754;2023-12-07T08:55:41;3.86;87.37
65460;DHT22;52058;49.822;6.754;2023-12-07T08:58:07;3.79;87.10
65460;DHT22;52058;49.822;6.754;2023-12-07T09:00:36;3.86;86.92
65460;DHT22;52058;49.822;6.754;2023-12-07T09:03:05;3.98;87.01
65460;DHT22;52058;49.822;6.754;2023-12-07T09:05:31;4.10;86.27
65460;DHT22;52058;49.822;6.754;2023-12-07T09:07:58;4.03;86.60
65460;DHT22;52058;49.822;6.754;2023-12-07T09:10:24;3.98;87.02
65460;DHT22;52058;49.822;6.754;2023-12-07T09:12:51;4.05;86.79
65460;DHT22;52058;49.822;6.754;2023-12-07T09:15:17;4.03;86.81
65460;DHT22;52058;49.822;6.754;2023-12-07T09:17:44;4.06;86.64
65460;DHT22;52058;49.822;6.754;2023-12-07T09:20:12;4.11;86.91
65460;DHT22;52058;49.822;6.754;2023-12-07T09:22:40;4.06;86.77
65460;DHT22;52058;49.822;6.754;2023-12-07T09:25:07;4.00;86.49
65460;DHT22;52058;49.822;6.754;2023-12-07T09:27:35;3.96;86.89
65460;DHT22;52058;49.822;6.754;2023-12-07T09:30:04;3.90;86.88
65460;DHT22;52058;49.822;6.754;2023-12-07T09:32:30;3.95;86.75
65460;DHT22;52058;49.822;6.754;2023-12-07T09:34:57;3.82;87.06
65460;DHT22;52058;49.822;6.754;2023-12-07T09:37:25;3.90;87.08
65460;DHT22;52058;49.822;6.754;2023-12-07T09:39:51;3.89;86.95
65460;DHT22;52058;49.822;6.754;2023-12-07T09:42:18;3.82;87.51
65460;DHT22;52058;49.822;6.754;2023-12-07T09:44:44;3.71;87.50
65460;DHT22;52058;49.822;6.754;2023-12-07T09:47:11;3.77;87.66
65460;DHT22;52058;49.822;6.754;2023-12-07T09:49:39;3.78;87.69
65460;DHT22;52058;49.822;6.754;2023-12-07T09:52:06;3.74;87.26
65460;DHT22;52058;49.822;6.754;2023-12-07T09:54:35;3.82;87.75
65460;DHT22;52058;49.822;6.754;2023-12-07T09:57:06;4.02;87.86
65460;DHT22;52058;49.822;6.754;2023-12-07T09:59:34;4.09;87.30
65460;DHT22;52058;49.822;6.754;2023-12-07T10:02:01;4.19;87.02
65460;DHT22;52058;49.822;6.754;2023-12-07T10:04:28;4.19;86.99
65460;DHT22;52058;49.822;6.754;2023-12-07T10:06:56;4.30;87.40
65460;DHT22;52058;49.822;6.754;2023-12-07T10:09:22;4.30;87.17
65460;DHT22;52058;49.822;6.754;2023-12-07T10:12:02;4.34;87.01
65460;DHT22;52058;49.822;6.754;2023-12-07T10:14:28;4.36;87.11
65460;DHT22;52058;49.822;6.754;2023-12-07T10:16:55;4.24;86.94
65460;DHT22;52058;49.822;6.754;2023-12-07T10:19:23;4.46;87.36
65460;DHT22;52058;49.822;6.754;2023-12-07T10:21:51;4.27;87.17
65460;DHT22;52058;49.822;6.754;2023-12-07T10:24:18;4.10;87.81
65460;DHT22;52058;49.822;6.754;2023-12-07T10:26:45;4.02;87.90
65460;DHT22;52058;49.822;6.754;2023-12-07T10:29:13;3.92;87.50
65460;DHT22;52058;49.822;6.754;2023-12-07T10:31:40;3.88;87.66
65460;DHT22;52058;49.822;6.754;2023-12-07T10:34:06;3.78;87.85
65460;DHT22;52058;49.822;6.754;2023-12-07T10:36:34;3.78;87.82
65460;DHT22;52058;49.822;6.754;2023-12-07T10:39:00;3.71;88.20
65460;DHT22;52058;49.822;6.754;2023-12-07T10:41:33;3.72;88.25
65460;DHT22;52058;49.822;6.754;2023-12-07T10:44:01;3.82;88.76
65460;DHT22;52058;49.822;6.754;2023-12-07T10:46:29;3.83;88.58
65460;DHT22;52058;49.822;6.754;2023-12-07T10:49:00;3.92;88.47
65460;DHT22;52058;49.822;6.754;2023-12-07T10:51:31;4.00;88.25
65460;DHT22;52058;49.822;6.754;2023-12-07T10:53:59;4.02;87.96
65460;DHT22;52058;49.822;6.754;2023-12-07T10:56:34;3.95;88.04
65460;DHT22;52058;49.822;6.754;2023-12-07T10:59:01;4.05;88.23
65460;DHT22;52058;49.822;6.754;2023-12-07T11:01:29;4.23;88.40
65460;DHT22;52058;49.822;6.754;2023-12-07T11:03:58;4.26;88.11
65460;DHT22;52058;49.822;6.754;2023-12-07T11:06:25;4.43;88.06
65460;DHT22;52058;49.822;6.754;2023-12-07T11:08:54;4.38;87.43
65460;DHT22;52058;49.822;6.754;2023-12-07T11:11:26;4.50;87.16
65460;DHT22;52058;49.822;6.754;2023-12-07T11:13:57;4.47;87.09
65460;DHT22;52058;49.822;6.754;2023-12-07T11:16:32;4.54;87.46
65460;DHT22;52058;49.822;6.754;2023-12-07T11:19:01;4.53;87.20
65460;DHT22;52058;49.822;6.754;2023-12-07T11:21:27;4.51;87.04
65460;DHT22;52058;49.822;6.754;2023-12-07T11:23:54;4.53;87.08
65460;DHT22;52058;49.822;6.754;2023-12-07T11:26:23;4.62;87.22
65460;DHT22;52058;49.822;6.754;2023-12-07T11:28:50;4.74;86.77
65460;DHT22;52058;49.822;6.754;2023-12-07T11:31:16;4.74;86.49
65460;DHT22;52058;49.822;6.754;2023-12-07T11:33:44;4.89;86.81
65460;DHT22;52058;49.822;6.754;2023-12-07T11:36:13;4.88;86.11
65460;DHT22;52058;49.822;6.754;2023-12-07T11:41:43;4.78;86.65
65460;DHT22;52058;49.822;6.754;2023-12-07T11:44:10;4.62;86.46
65460;DHT22;52058;49.822;6.754;2023-12-07T11:46:37;4.53;86.81
65460;DHT22;52058;49.822;6.754;2023-12-07T11:49:05;4.43;87.03
65460;DHT22;52058;49.822;6.754;2023-12-07T11:51:36;4.40;87.39
65460;DHT22;52058;49.822;6.754;2023-12-07T11:54:02;4.43;87.36
65460;DHT22;52058;49.822;6.754;2023-12-07T11:56:29;4.34;87.95
65460;DHT22;52058;49.822;6.754;2023-12-07T11:58:56;4.38;87.50
65460;DHT22;52058;49.822;6.754;2023-12-07T12:01:25;4.46;87.76
65460;DHT22;52058;49.822;6.754;2023-12-07T12:03:53;4.47;87.60
65460;DHT22;52058;49.822;6.754;2023-12-07T12:06:23;4.54;87.40
65460;DHT22;52058;49.822;6.754;2023-12-07T12:08:51;4.57;86.93
65460;DHT22;52058;49.822;6.754;2023-12-07T12:11:18;4.62;86.78
65460;DHT22;52058;49.822;6.754;2023-12-07T12:13:45;4.68;86.80
65460;DHT22;52058;49.822;6.754;2023-12-07T12:16:12;4.74;86.56
65460;DHT22;52058;49.822;6.754;2023-12-07T12:18:39;4.84;86.44
65460;DHT22;52058;49.822;6.754;2023-12-07T12:21:07;4.84;86.39
65460;DHT22;52058;49.822;6.754;2023-12-07T12:23:35;4.99;86.43
65460;DHT22;52058;49.822;6.754;2023-12-07T12:26:03;4.99;85.91
65460;DHT22;52058;49.822;6.754;2023-12-07T12:28:30;5.04;85.63
65460;DHT22;52058;49.822;6.754;2023-12-07T12:30:57;5.05;86.01
65460;DHT22;52058;49.822;6.754;2023-12-07T12:33:24;5.26;85.52
65460;DHT22;52058;49.822;6.754;2023-12-07T12:36:01;5.26;85.00
65460;DHT22;52058;49.822;6.754;2023-12-07T12:38:28;5.40;84.95
65460;DHT22;52058;49.822;6.754;2023-12-07T12:40:56;5.39;84.95
65460;DHT22;52058;49.822;6.754;2023-12-07T12:43:23;5.36;84.74
65460;DHT22;52058;49.822;6.754;2023-12-07T12:45:49;5.37;85.21
65460;DHT22;52058;49.822;6.754;2023-12-07T12:48:16;5.39;85.41
65460;DHT22;52058;49.822;6.754;2023-12-07T12:50:44;5.47;85.20
65460;DHT22;52058;49.822;6.754;2023-12-07T12:53:10;5.42;85.45
65460;DHT22;52058;49.822;6.754;2023-12-07T12:55:40;5.40;85.52
65460;DHT22;52058;49.822;6.754;2023-12-07T12:58:09;5.37;85.42
65460;DHT22;52058;49.822;6.754;2023-12-07T13:00:38;5.23;85.43
65460;DHT22;52058;49.822;6.754;2023-12-07T13:03:05;5.20;85.69
65460;DHT22;52058;49.822;6.754;2023-12-07T13:05:32;5.16;85.54
65460;DHT22;52058;49.822;6.754;2023-12-07T13:08:00;5.16;85.45
65460;DHT22;52058;49.822;6.754;2023-12-07T13:10:27;5.08;85.60
65460;DHT22;52058;49.822;6.754;2023-12-07T13:12:53;5.08;85.83
65460;DHT22;52058;49.822;6.754;2023-12-07T13:15:22;5.09;85.83
65460;DHT22;52058;49.822;6.754;2023-12-07T13:17:50;4.98;85.87
65460;DHT22;52058;49.822;6.754;2023-12-07T13:20:17;5.12;85.54
65460;DHT22;52058;49.822;6.754;2023-12-07T13:22:44;5.05;85.92
65460;DHT22;52058;49.822;6.754;2023-12-07T13:25:11;5.08;85.83
65460;DHT22;52058;49.822;6.754;2023-12-07T13:27:40;5.05;85.92
65460;DHT22;52058;49.822;6.754;2023-12-07T13:30:07;5.09;85.36
65460;DHT22;52058;49.822;6.754;2023-12-07T13:32:36;5.12;85.59
65460;DHT22;52058;49.822;6.754;2023-12-07T13:35:03;5.11;85.73
65460;DHT22;52058;49.822;6.754;2023-12-07T13:37:30;5.13;85.90
65460;DHT22;52058;49.822;6.754;2023-12-07T13:39:58;5.13;85.84
65460;DHT22;52058;49.822;6.754;2023-12-07T13:42:25;5.18;86.25
65460;DHT22;52058;49.822;6.754;2023-12-07T13:44:54;5.04;86.14
65460;DHT22;52058;49.822;6.754;2023-12-07T13:47:23;5.04;85.89
65460;DHT22;52058;49.822;6.754;2023-12-07T13:49:55;4.93;86.42
65460;DHT22;52058;49.822;6.754;2023-12-07T13:52:22;4.93;86.97
65460;DHT22;52058;49.822;6.754;2023-12-07T13:54:48;4.85;87.16
65460;DHT22;52058;49.822;6.754;2023-12-07T13:57:15;4.84;87.44
65460;DHT22;52058;49.822;6.754;2023-12-07T13:59:41;4.75;87.61
65460;DHT22;52058;49.822;6.754;2023-12-07T14:02:08;4.74;87.74
65460;DHT22;52058;49.822;6.754;2023-12-07T14:04:35;4.72;88.05
65460;DHT22;52058;49.822;6.754;2023-12-07T14:07:12;4.68;87.87
65460;DHT22;52058;49.822;6.754;2023-12-07T14:09:41;4.64;88.11
65460;DHT22;52058;49.822;6.754;2023-12-07T14:12:08;4.69;88.29
65460;DHT22;52058;49.822;6.754;2023-12-07T14:14:36;4.65;88.52
65460;DHT22;52058;49.822;6.754;2023-12-07T14:17:03;4.57;88.77
65460;DHT22;52058;49.822;6.754;2023-12-07T14:19:29;4.51;89.12
65460;DHT22;52058;49.822;6.754;2023-12-07T14:21:56;4.47;89.41
65460;DHT22;52058;49.822;6.754;2023-12-07T14:24:25;4.50;89.52
65460;DHT22;52058;49.822;6.754;2023-12-07T14:26:52;4.46;89.52
65460;DHT22;52058;49.822;6.754;2023-12-07T14:29:18;4.40;89.61
65460;DHT22;52058;49.822;6.754;2023-12-07T14:31:46;4.38;89.65
65460;DHT22;52058;49.822;6.754;2023-12-07T14:34:13;4.32;89.60
65460;DHT22;52058;49.822;6.754;2023-12-07T14:36:40;4.26;89.38
65460;DHT22;52058;49.822;6.754;2023-12-07T14:39:07;4.23;89.81
65460;DHT22;52058;49.822;6.754;2023-12-07T14:41:34;4.16;89.59
65460;DHT22;52058;49.822;6.754;2023-12-07T14:44:02;4.09;89.77
65460;DHT22;52058;49.822;6.754;2023-12-07T14:46:28;4.06;89.84
65460;DHT22;52058;49.822;6.754;2023-12-07T14:48:55;3.96;90.12
65460;DHT22;52058;49.822;6.754;2023-12-07T14:51:21;3.90;90.10
65460;DHT22;52058;49.822;6.754;2023-12-07T14:53:48;3.93;90.31
65460;DHT22;52058;49.822;6.754;2023-12-07T14:56:14;3.93;90.72
65460;DHT22;52058;49.822;6.754;2023-12-07T14:58:42;3.88;90.50
65460;DHT22;52058;49.822;6.754;2023-12-07T15:01:09;3.78;90.35
65460;DHT22;52058;49.822;6.754;2023-12-07T15:03:35;3.75;90.47
65460;DHT22;52058;49.822;6.754;2023-12-07T15:06:03;3.69;90.39
65460;DHT22;52058;49.822;6.754;2023-12-07T15:08:29;3.65;90.60
65460;DHT22;52058;49.822;6.754;2023-12-07T15:10:56;3.58;91.27
65460;DHT22;52058;49.822;6.754;2023-12-07T15:13:25;3.44;91.62
65460;DHT22;52058;49.822;6.754;2023-12-07T15:15:53;3.38;92.10
65460;DHT22;52058;49.822;6.754;2023-12-07T15:18:20;3.30;92.24
65460;DHT22;52058;49.822;6.754;2023-12-07T15:20:46;3.19;92.63
65460;DHT22;52058;49.822;6.754;2023-12-07T15:23:13;3.07;92.83
65460;DHT22;52058;49.822;6.754;2023-12-07T15:25:40;2.97;93.05
65460;DHT22;52058;49.822;6.754;2023-12-07T15:28:06;2.90;93.21
65460;DHT22;52058;49.822;6.754;2023-12-07T15:30:36;2.86;93.51
65460;DHT22;52058;49.822;6.754;2023-12-07T15:33:04;2.85;93.73
65460;DHT22;52058;49.822;6.754;2023-12-07T15:35:30;2.83;93.80
65460;DHT22;52058;49.822;6.754;2023-12-07T15:37:57;2.78;93.79
65460;DHT22;52058;49.822;6.754;2023-12-07T15:40:24;2.71;93.84
65460;DHT22;52058;49.822;6.754;2023-12-07T15:42:51;2.72;93.80
65460;DHT22;52058;49.822;6.754;2023-12-07T15:45:17;2.69;93.78
65460;DHT22;52058;49.822;6.754;2023-12-07T15:47:44;2.73;93.99